createdAt,value
2019-03-31T00:02:27.012Z,98038.56
2019-03-31T00:04:56.342Z,98030.29
2019-03-31T00:07:26.682Z,98027.56
2019-03-31T00:09:56.075Z,98028.47
2019-03-31T00:12:25.356Z,98032.84
2019-03-31T00:14:54.627Z,98029.84
2019-03-31T00:17:24.992Z,98032.39
2019-03-31T00:19:54.185Z,98029.78
2019-03-31T00:22:23.427Z,98032.97
2019-03-31T00:24:53.582Z,98030.27
2019-03-31T00:27:23.059Z,98031.58
2019-03-31T00:29:52.992Z,98028.74
2019-03-31T00:32:22.595Z,98028.97
2019-03-31T00:34:51.860Z,98027.21
2019-03-31T00:37:21.292Z,98033.55
2019-03-31T00:39:53.042Z,98032.61
2019-03-31T00:42:22.284Z,98034.92
2019-03-31T00:44:51.711Z,98031.23
2019-03-31T00:47:21.242Z,98035.50
2019-03-31T00:49:52.382Z,98035.98
2019-03-31T00:52:21.658Z,98032.38
2019-03-31T00:54:51.069Z,98037.58
2019-03-31T00:57:20.369Z,98039.85
2019-03-31T00:59:49.700Z,98038.68
2019-03-31T01:02:22.512Z,98035.95
2019-03-31T01:04:51.922Z,98040.19
2019-03-31T01:07:23.321Z,98036.80
2019-03-31T01:09:53.525Z,98034.03
2019-03-31T01:12:24.313Z,98029.61
2019-03-31T01:14:53.733Z,98034.75
2019-03-31T01:17:25.530Z,98030.00
2019-03-31T01:19:56.756Z,98032.50
2019-03-31T01:22:26.148Z,98031.09
2019-03-31T01:24:55.734Z,98034.31
2019-03-31T01:27:25.232Z,98027.02
2019-03-31T01:29:54.857Z,98030.14
2019-03-31T01:32:24.433Z,98031.72
2019-03-31T01:34:53.774Z,98027.86
2019-03-31T01:37:23.200Z,98027.30
2019-03-31T01:39:52.561Z,98032.25
2019-03-31T01:42:22.283Z,98027.17
2019-03-31T01:44:51.783Z,98027.17
2019-03-31T01:47:21.406Z,98026.55
2019-03-31T01:49:50.736Z,98022.91
2019-03-31T01:52:21.709Z,98019.80
2019-03-31T01:54:51.064Z,98024.94
2019-03-31T01:57:20.474Z,98025.27
2019-03-31T01:59:49.829Z,98031.83
2019-03-31T02:02:26.800Z,98027.56
2019-03-31T02:04:56.245Z,98024.91
2019-03-31T02:07:25.562Z,98023.88
2019-03-31T02:09:54.873Z,98019.91
2019-03-31T02:12:24.271Z,98020.58
2019-03-31T02:14:53.598Z,98023.23
2019-03-31T02:17:23.116Z,98019.33
2019-03-31T02:19:52.373Z,98019.98
2019-03-31T02:22:21.742Z,98017.26
2019-03-31T02:24:51.059Z,98017.86
2019-03-31T02:27:20.376Z,98017.63
2019-03-31T02:29:49.636Z,98021.48
2019-03-31T02:32:24.141Z,98014.94
2019-03-31T02:34:50.156Z,98015.44
2019-03-31T02:37:19.505Z,98016.94
2019-03-31T02:39:48.823Z,98014.96
2019-03-31T02:42:18.130Z,98007.57
2019-03-31T02:44:47.437Z,98008.53
2019-03-31T02:47:16.794Z,98007.23
2019-03-31T02:49:47.039Z,98006.87
2019-03-31T02:52:16.352Z,98003.14
2019-03-31T02:54:45.765Z,98011.27
2019-03-31T02:57:15.601Z,98008.38
2019-03-31T02:59:45.185Z,98008.08
2019-03-31T03:02:15.033Z,98010.98
2019-03-31T03:04:44.387Z,98009.31
2019-03-31T03:07:13.898Z,98019.70
2019-03-31T03:09:45.790Z,98004.74
2019-03-31T03:12:16.170Z,98008.27
2019-03-31T03:14:45.497Z,98002.79
2019-03-31T03:17:14.847Z,98009.94
2019-03-31T03:19:44.276Z,98003.98
2019-03-31T03:22:13.685Z,98012.53
2019-03-31T03:24:43.018Z,98009.94
2019-03-31T03:27:12.295Z,98009.36
2019-03-31T03:29:41.562Z,98011.81
2019-03-31T03:32:10.866Z,98007.52
2019-03-31T03:34:40.280Z,98011.07
2019-03-31T03:37:09.501Z,98009.38
2019-03-31T03:39:38.781Z,98013.27
2019-03-31T03:42:08.525Z,98009.70
2019-03-31T03:44:37.714Z,98010.21
2019-03-31T03:47:06.971Z,98014.69
2019-03-31T03:49:36.318Z,98010.00
2019-03-31T03:52:05.772Z,98011.70
2019-03-31T03:54:35.208Z,98010.45
2019-03-31T03:57:05.512Z,98008.45
2019-03-31T03:59:34.831Z,98013.23
2019-03-31T04:02:04.164Z,98015.83
2019-03-31T04:04:33.426Z,98013.63
2019-03-31T04:07:02.968Z,98012.33
2019-03-31T04:09:32.256Z,98011.20
2019-03-31T04:12:01.588Z,98019.16
2019-03-31T04:14:30.840Z,98013.18
2019-03-31T04:17:00.268Z,98008.08
2019-03-31T04:19:29.641Z,98012.42
2019-03-31T04:21:58.922Z,98008.34
2019-03-31T04:24:28.231Z,98012.58
2019-03-31T04:26:57.490Z,98014.77
2019-03-31T04:29:26.792Z,98013.98
2019-03-31T04:31:57.376Z,98018.90
2019-03-31T04:34:26.603Z,98020.64
2019-03-31T04:36:55.896Z,98020.03
2019-03-31T04:39:27.762Z,98023.76
2019-03-31T04:41:57.108Z,98020.66
2019-03-31T04:44:26.450Z,98022.20
2019-03-31T04:46:55.712Z,98021.40
2019-03-31T04:49:25.086Z,98022.20
2019-03-31T04:51:54.471Z,98021.13
2019-03-31T04:54:23.866Z,98021.89
2019-03-31T04:56:53.159Z,98024.39
2019-03-31T04:59:22.409Z,98021.22
2019-03-31T05:01:51.653Z,98023.99
2019-03-31T05:04:20.993Z,98030.08
2019-03-31T05:06:50.246Z,98027.53
2019-03-31T05:09:19.615Z,98029.89
2019-03-31T05:11:48.884Z,98032.34
2019-03-31T05:14:18.185Z,98041.47
2019-03-31T05:16:47.650Z,98036.61
2019-03-31T05:19:16.943Z,98041.87
2019-03-31T05:21:46.213Z,98040.84
2019-03-31T05:24:15.607Z,98041.34
2019-03-31T05:26:44.930Z,98044.45
2019-03-31T05:29:15.537Z,98046.91
2019-03-31T05:31:44.937Z,98053.00
2019-03-31T05:34:19.422Z,98053.02
2019-03-31T05:36:45.341Z,98057.34
2019-03-31T05:39:14.594Z,98056.56
2019-03-31T05:41:50.071Z,98056.63
2019-03-31T05:44:19.426Z,98052.48
2019-03-31T05:46:48.924Z,98052.19
2019-03-31T05:49:18.432Z,98052.16
2019-03-31T05:51:47.722Z,98049.17
2019-03-31T05:54:17.052Z,98054.40
2019-03-31T05:56:46.414Z,98051.91
2019-03-31T05:59:15.841Z,98057.45
2019-03-31T06:01:45.253Z,98054.53
2019-03-31T06:04:14.651Z,98054.28
2019-03-31T06:06:44.018Z,98058.89
2019-03-31T06:09:14.798Z,98053.11
2019-03-31T06:11:45.226Z,98050.82
2019-03-31T06:14:14.693Z,98049.70
2019-03-31T06:16:44.185Z,98049.70
2019-03-31T06:19:13.870Z,98056.81
2019-03-31T06:21:43.127Z,98059.60
2019-03-31T06:24:12.424Z,98048.33
2019-03-31T06:26:44.284Z,98055.17
2019-03-31T06:29:14.642Z,98049.44
2019-03-31T06:31:43.954Z,98055.30
2019-03-31T06:34:13.454Z,98060.11
2019-03-31T06:36:43.927Z,98054.61
2019-03-31T06:39:13.283Z,98055.66
2019-03-31T06:41:42.677Z,98057.70
2019-03-31T06:44:11.981Z,98059.41
2019-03-31T06:46:41.338Z,98058.94
2019-03-31T06:49:10.800Z,98064.41
2019-03-31T06:51:40.180Z,98067.46
2019-03-31T06:54:09.600Z,98064.42
2019-03-31T06:56:38.998Z,98060.33
2019-03-31T06:59:08.443Z,98060.33
2019-03-31T07:01:37.766Z,98061.37
2019-03-31T07:04:08.185Z,98058.82
2019-03-31T07:06:37.574Z,98066.03
2019-03-31T07:09:07.418Z,98063.97
2019-03-31T07:11:36.753Z,98068.89
2019-03-31T07:14:06.198Z,98063.41
2019-03-31T07:16:35.549Z,98063.70
2019-03-31T07:19:04.903Z,98065.33
2019-03-31T07:21:34.248Z,98064.16
2019-03-31T07:24:03.999Z,98060.25
2019-03-31T07:26:33.536Z,98057.95
2019-03-31T07:29:03.382Z,98062.20
2019-03-31T07:31:33.276Z,98060.34
2019-03-31T07:34:03.336Z,98060.55
2019-03-31T07:36:32.628Z,98058.66
2019-03-31T07:39:02.026Z,98064.08
2019-03-31T07:41:33.491Z,98064.63
2019-03-31T07:44:02.831Z,98064.69
2019-03-31T07:46:32.116Z,98064.13
2019-03-31T07:49:01.551Z,98068.14
2019-03-31T07:51:30.976Z,98055.30
2019-03-31T07:54:00.426Z,98059.89
2019-03-31T07:56:30.912Z,98055.87
2019-03-31T07:59:00.399Z,98055.26
2019-03-31T08:01:29.765Z,98054.16
2019-03-31T08:03:59.156Z,98055.16
2019-03-31T08:06:28.658Z,98061.39
2019-03-31T08:08:59.113Z,98058.30
2019-03-31T08:11:28.585Z,98060.34
2019-03-31T08:13:59.315Z,98056.66
2019-03-31T08:16:28.772Z,98056.66
2019-03-31T08:18:58.165Z,98059.48
2019-03-31T08:21:27.727Z,98058.51
2019-03-31T08:23:57.190Z,98064.19
2019-03-31T08:26:26.709Z,98060.95
2019-03-31T08:28:58.629Z,98060.64
2019-03-31T08:31:27.492Z,98060.47
2019-03-31T08:33:56.756Z,98061.48
2019-03-31T08:36:26.109Z,98061.95
2019-03-31T08:38:55.517Z,98070.89
2019-03-31T08:41:25.017Z,98067.19
2019-03-31T08:43:54.410Z,98062.86
2019-03-31T08:46:23.747Z,98067.30
2019-03-31T08:48:53.106Z,98061.97
2019-03-31T08:51:22.461Z,98059.27
2019-03-31T08:53:51.755Z,98066.46
2019-03-31T08:56:21.159Z,98067.66
2019-03-31T08:58:50.431Z,98059.27
2019-03-31T09:01:20.016Z,98056.86
2019-03-31T09:03:49.304Z,98059.81
2019-03-31T09:06:19.592Z,98062.14
2019-03-31T09:08:48.948Z,98063.30
2019-03-31T09:11:18.448Z,98060.81
2019-03-31T09:13:47.670Z,98063.94
2019-03-31T09:16:16.994Z,98061.23
2019-03-31T09:18:46.407Z,98055.91
2019-03-31T09:21:15.859Z,98057.30
2019-03-31T09:23:45.884Z,98055.49
2019-03-31T09:26:15.362Z,98057.73
2019-03-31T09:28:44.805Z,98058.64
2019-03-31T09:31:14.396Z,98052.47
2019-03-31T09:33:43.875Z,98052.30
2019-03-31T09:36:16.362Z,98055.26
2019-03-31T09:38:45.350Z,98054.42
2019-03-31T09:41:14.731Z,98047.88
2019-03-31T09:43:43.983Z,98046.85
2019-03-31T09:46:13.323Z,98043.70
2019-03-31T09:48:42.737Z,98038.83
2019-03-31T09:51:12.185Z,98044.52
2019-03-31T09:53:41.499Z,98044.59
2019-03-31T09:56:10.898Z,98037.93
2019-03-31T09:58:40.298Z,98036.82
2019-03-31T10:01:09.669Z,98033.61
2019-03-31T10:03:39.093Z,98039.05
2019-03-31T10:06:11.031Z,98036.61
2019-03-31T10:08:39.805Z,98034.85
2019-03-31T10:11:09.097Z,98026.63
2019-03-31T10:13:38.530Z,98022.91
2019-03-31T10:16:08.785Z,98023.20
2019-03-31T10:18:38.151Z,98016.52
2019-03-31T10:21:07.517Z,98009.77
2019-03-31T10:23:36.837Z,98015.11
2019-03-31T10:26:06.303Z,98009.48
2019-03-31T10:28:35.848Z,98005.02
2019-03-31T10:31:05.252Z,98004.67
2019-03-31T10:33:34.638Z,98003.41
2019-03-31T10:36:04.118Z,97999.33
2019-03-31T10:38:33.463Z,97994.23
2019-03-31T10:41:02.859Z,97993.97
2019-03-31T10:43:32.122Z,97992.55
2019-03-31T10:46:01.504Z,97995.34
2019-03-31T10:48:30.887Z,97990.73
2019-03-31T10:51:00.204Z,97979.38
2019-03-31T10:53:29.576Z,97984.84
2019-03-31T10:55:59.013Z,97985.03
2019-03-31T10:58:29.473Z,97972.47
2019-03-31T11:00:58.742Z,97970.00
2019-03-31T11:03:28.192Z,97971.67
2019-03-31T11:05:57.663Z,97966.17
2019-03-31T11:08:26.976Z,97964.83
2019-03-31T11:10:56.323Z,97957.83
2019-03-31T11:13:25.678Z,97959.70
2019-03-31T11:15:57.497Z,97958.43
2019-03-31T11:18:26.232Z,97954.48
2019-03-31T11:20:56.765Z,97957.33
2019-03-31T11:23:27.853Z,97954.78
2019-03-31T11:25:57.351Z,97948.40
2019-03-31T11:28:26.776Z,97946.36
2019-03-31T11:30:56.168Z,97943.92
2019-03-31T11:33:25.544Z,97946.28
2019-03-31T11:35:55.101Z,97940.42
2019-03-31T11:38:24.581Z,97945.81
2019-03-31T11:40:53.999Z,97946.97
2019-03-31T11:43:23.281Z,97950.00
2019-03-31T11:45:52.709Z,97939.41
2019-03-31T11:48:22.182Z,97942.02
2019-03-31T11:50:52.604Z,97938.38
2019-03-31T11:53:22.639Z,97935.80
2019-03-31T11:55:52.171Z,97932.17
2019-03-31T11:58:22.098Z,97928.66
2019-03-31T12:00:57.996Z,97924.76
2019-03-31T12:03:30.777Z,97923.42
2019-03-31T12:05:59.064Z,97924.88
2019-03-31T12:08:32.798Z,97918.95
2019-03-31T12:11:02.274Z,97915.54
2019-03-31T12:13:33.749Z,97921.81
2019-03-31T12:16:03.179Z,97916.25
2019-03-31T12:18:32.765Z,97916.96
2019-03-31T12:21:02.095Z,97920.18
2019-03-31T12:23:31.438Z,97907.86
2019-03-31T12:26:00.947Z,97909.53
2019-03-31T12:28:31.859Z,97915.36
2019-03-31T12:31:01.286Z,97912.20
2019-03-31T12:33:30.675Z,97910.38
2019-03-31T12:36:01.013Z,97905.20
2019-03-31T12:38:30.686Z,97898.75
2019-03-31T12:41:00.441Z,97898.14
2019-03-31T12:43:31.823Z,97889.19
2019-03-31T12:46:01.401Z,97885.74
2019-03-31T12:48:31.762Z,97872.59
2019-03-31T12:51:01.418Z,97878.76
2019-03-31T12:53:30.807Z,97871.16
2019-03-31T12:56:00.769Z,97870.88
2019-03-31T12:58:30.263Z,97872.11
2019-03-31T13:00:59.761Z,97870.08
2019-03-31T13:03:29.277Z,97866.13
2019-03-31T13:05:58.705Z,97863.34
2019-03-31T13:08:28.117Z,97858.33
2019-03-31T13:10:59.761Z,97865.60
2019-03-31T13:13:29.280Z,97862.22
2019-03-31T13:15:59.815Z,97860.20
2019-03-31T13:18:29.296Z,97852.92
2019-03-31T13:20:58.852Z,97849.14
2019-03-31T13:23:28.379Z,97852.08
2019-03-31T13:25:58.981Z,97837.47
2019-03-31T13:28:28.672Z,97835.27
2019-03-31T13:30:58.597Z,97838.00
2019-03-31T13:33:28.307Z,97832.40
2019-03-31T13:35:57.975Z,97838.11
2019-03-31T13:38:27.475Z,97828.97
2019-03-31T13:40:56.765Z,97824.49
2019-03-31T13:43:26.160Z,97830.80
2019-03-31T13:45:55.559Z,97823.41
2019-03-31T13:48:24.956Z,97824.08
2019-03-31T13:50:54.655Z,97819.90
2019-03-31T13:53:24.220Z,97814.18
2019-03-31T13:55:53.698Z,97815.44
2019-03-31T13:58:25.994Z,97814.05
2019-03-31T14:00:57.197Z,97818.72
2019-03-31T14:03:26.830Z,97824.19
2019-03-31T14:05:56.301Z,97819.36
2019-03-31T14:08:26.347Z,97819.80
2019-03-31T14:10:55.758Z,97821.66
2019-03-31T14:13:25.194Z,97819.72
2019-03-31T14:15:54.592Z,97811.17
2019-03-31T14:18:24.089Z,97809.58
2019-03-31T14:20:53.532Z,97811.84
2019-03-31T14:23:22.999Z,97810.91
2019-03-31T14:25:52.516Z,97811.13
2019-03-31T14:28:22.016Z,97810.09
2019-03-31T14:30:51.389Z,97813.73
2019-03-31T14:33:20.951Z,97803.19
2019-03-31T14:35:50.583Z,97805.42
2019-03-31T14:38:20.114Z,97798.49
2019-03-31T14:40:49.711Z,97795.98
2019-03-31T14:43:22.078Z,97789.77
2019-03-31T14:45:58.394Z,97784.33
2019-03-31T14:48:27.731Z,97789.34
2019-03-31T14:50:57.055Z,97779.28
2019-03-31T14:53:26.650Z,97778.65
2019-03-31T14:55:56.166Z,97780.45
2019-03-31T14:58:25.737Z,97771.02
2019-03-31T15:00:55.002Z,97770.83
2019-03-31T15:03:24.572Z,97773.13
2019-03-31T15:05:54.927Z,97766.53
2019-03-31T15:08:24.218Z,97761.21
2019-03-31T15:10:53.504Z,97767.52
2019-03-31T15:13:22.890Z,97758.41
2019-03-31T15:15:52.222Z,97762.09
2019-03-31T15:18:21.451Z,97756.46
2019-03-31T15:20:51.011Z,97756.16
2019-03-31T15:23:28.922Z,97755.44
2019-03-31T15:25:51.531Z,97758.06
2019-03-31T15:28:20.892Z,97753.09
2019-03-31T15:30:50.482Z,97756.05
2019-03-31T15:33:19.895Z,97759.91
2019-03-31T15:35:49.311Z,97750.59
2019-03-31T15:38:18.855Z,97756.20
2019-03-31T15:40:48.679Z,97753.20
2019-03-31T15:43:18.449Z,97754.73
2019-03-31T15:45:47.931Z,97746.91
2019-03-31T15:48:17.434Z,97756.16
2019-03-31T15:50:46.725Z,97752.14
2019-03-31T15:53:16.151Z,97757.07
2019-03-31T15:55:45.668Z,97752.58
2019-03-31T15:58:15.034Z,97757.95
2019-03-31T16:00:44.352Z,97759.92
2019-03-31T16:03:14.758Z,97758.25
2019-03-31T16:05:44.098Z,97754.54
2019-03-31T16:08:13.042Z,97760.63
2019-03-31T16:10:42.028Z,97764.52
2019-03-31T16:13:10.885Z,97763.13
2019-03-31T16:15:39.667Z,97760.09
2019-03-31T16:18:08.530Z,97761.29
2019-03-31T16:20:39.790Z,97756.88
2019-03-31T16:23:08.713Z,97760.94
2019-03-31T16:25:40.262Z,97761.56
2019-03-31T16:28:09.051Z,97760.95
2019-03-31T16:30:38.511Z,97760.86
2019-03-31T16:33:07.541Z,97762.09
2019-03-31T16:35:36.358Z,97758.84
2019-03-31T16:38:05.464Z,97760.10
2019-03-31T16:40:34.401Z,97757.73
2019-03-31T16:43:03.249Z,97756.62
2019-03-31T16:45:38.339Z,97763.16
2019-03-31T16:48:07.125Z,97756.22
2019-03-31T16:50:36.036Z,97758.30
2019-03-31T16:53:05.033Z,97759.16
2019-03-31T16:55:33.959Z,97757.88
2019-03-31T16:58:02.775Z,97758.24
2019-03-31T17:00:31.607Z,97761.33
2019-03-31T17:03:00.459Z,97762.96
2019-03-31T17:05:29.345Z,97764.29
2019-03-31T17:07:58.132Z,97762.73
2019-03-31T17:10:27.112Z,97765.37
2019-03-31T17:12:56.071Z,97765.45
2019-03-31T17:15:25.033Z,97762.80
2019-03-31T17:17:53.954Z,97770.09
2019-03-31T17:20:22.695Z,97769.95
2019-03-31T17:22:51.524Z,97767.87
2019-03-31T17:25:20.431Z,97772.23
2019-03-31T17:27:49.198Z,97768.69
2019-03-31T17:30:18.154Z,97769.97
2019-03-31T17:32:47.069Z,97772.50
2019-03-31T17:35:15.799Z,97772.33
2019-03-31T17:37:44.662Z,97777.55
2019-03-31T17:40:13.600Z,97778.27
2019-03-31T17:42:42.524Z,97781.11
2019-03-31T17:45:11.514Z,97782.63
2019-03-31T17:47:40.619Z,97785.33
2019-03-31T17:50:09.611Z,97788.16
2019-03-31T17:52:38.526Z,97789.27
2019-03-31T17:55:07.445Z,97789.20
2019-03-31T17:57:36.293Z,97785.48
2019-03-31T18:00:06.424Z,97796.89
2019-03-31T18:02:35.422Z,97796.53
2019-03-31T18:05:04.860Z,97801.94
2019-03-31T18:07:35.751Z,97800.50
2019-03-31T18:10:19.608Z,97802.67
2019-03-31T18:12:36.641Z,97800.66
2019-03-31T18:15:07.203Z,97808.69
2019-03-31T18:17:36.098Z,97810.98
2019-03-31T18:20:05.344Z,97815.42
2019-03-31T18:22:34.318Z,97819.63
2019-03-31T18:25:03.331Z,97816.63
2019-03-31T18:27:32.401Z,97823.70
2019-03-31T18:30:01.441Z,97817.72
2019-03-31T18:32:30.319Z,97820.95
2019-03-31T18:34:59.934Z,97828.37
2019-03-31T18:37:28.894Z,97829.11
2019-03-31T18:39:57.931Z,97834.48
2019-03-31T18:42:27.849Z,97840.60
2019-03-31T18:44:57.781Z,97844.55
2019-03-31T18:47:27.847Z,97853.14
2019-03-31T18:49:56.760Z,97854.08
2019-03-31T18:52:25.649Z,97851.08
2019-03-31T18:55:19.148Z,97858.38
2019-03-31T18:58:02.934Z,97864.58
2019-03-31T19:01:07.873Z,97876.04
2019-03-31T19:03:53.813Z,97872.19
2019-03-31T19:06:56.871Z,97873.03
2019-03-31T19:10:03.184Z,97885.11
2019-03-31T19:12:45.778Z,97880.80
2019-03-31T19:15:49.300Z,97884.95
2019-03-31T19:18:44.152Z,97887.84
2019-03-31T19:21:18.041Z,97893.42
2019-03-31T19:24:17.233Z,97899.63
2019-03-31T19:27:04.763Z,97901.99
2019-03-31T19:29:51.820Z,97903.55
2019-03-31T19:32:26.520Z,97905.34
2019-03-31T19:35:33.120Z,97911.75
2019-03-31T19:38:16.413Z,97913.31
2019-03-31T19:41:04.408Z,97923.22
2019-03-31T19:43:53.086Z,97925.82
2019-03-31T19:46:31.154Z,97923.80
2019-03-31T19:49:17.911Z,97927.50
2019-03-31T19:52:01.316Z,97928.42
2019-03-31T19:54:58.551Z,97935.81
2019-03-31T19:58:04.857Z,97934.73
2019-03-31T20:00:45.971Z,97943.56
2019-03-31T20:03:23.574Z,97943.67
2019-03-31T20:06:10.487Z,97952.59
2019-03-31T20:08:59.588Z,97952.59
2019-03-31T20:11:59.412Z,97954.72
2019-03-31T20:14:37.384Z,97952.36
2019-03-31T20:17:13.573Z,97964.72
2019-03-31T20:20:01.274Z,97966.61
2019-03-31T20:22:37.362Z,97967.89
2019-03-31T20:25:25.526Z,97966.77
2019-03-31T20:28:02.385Z,97971.66
2019-03-31T20:30:46.920Z,97972.83
2019-03-31T20:33:33.046Z,97975.66
2019-03-31T20:36:36.352Z,97974.30
2019-03-31T20:39:23.117Z,97968.03
2019-03-31T20:42:11.240Z,97964.98
2019-03-31T20:44:40.123Z,97966.86
2019-03-31T20:47:08.895Z,97974.64
2019-03-31T20:49:37.784Z,97977.14
2019-03-31T20:52:06.806Z,97975.68
2019-03-31T20:54:35.654Z,97983.04
2019-03-31T20:57:04.654Z,97978.36
2019-03-31T20:59:35.685Z,97987.30
2019-03-31T21:02:04.619Z,97997.90
2019-03-31T21:04:33.733Z,97999.41
2019-03-31T21:07:02.625Z,97999.82
2019-03-31T21:09:44.188Z,97999.82
2019-03-31T21:12:02.279Z,98007.92
2019-03-31T21:14:31.190Z,98006.80
2019-03-31T21:17:01.077Z,98008.70
2019-03-31T21:19:30.005Z,98006.88
2019-03-31T21:21:58.955Z,98010.63
2019-03-31T21:24:27.769Z,98013.84
2019-03-31T21:26:57.767Z,98016.28
2019-03-31T21:29:27.795Z,98007.27
2019-03-31T21:31:56.662Z,98015.22
2019-03-31T21:34:25.629Z,98016.00
2019-03-31T21:36:54.509Z,98016.19
2019-03-31T21:39:24.414Z,98015.81
2019-03-31T21:41:53.259Z,98013.03
2019-03-31T21:44:22.191Z,98013.53
2019-03-31T21:46:51.104Z,98017.21
2019-03-31T21:49:20.100Z,98023.57
2019-03-31T21:51:49.058Z,98026.78
2019-03-31T21:54:17.908Z,98017.33
2019-03-31T21:56:46.837Z,98019.20
2019-03-31T21:59:15.711Z,98023.89
2019-03-31T22:01:44.608Z,98026.82
2019-03-31T22:04:13.485Z,98030.00
2019-03-31T22:06:42.362Z,98027.21
2019-03-31T22:09:11.816Z,98030.60
2019-03-31T22:11:40.759Z,98029.47
2019-03-31T22:14:10.702Z,98028.17
2019-03-31T22:16:39.869Z,98020.23
2019-03-31T22:19:08.687Z,98027.45
2019-03-31T22:21:37.508Z,98021.47
2019-03-31T22:24:06.697Z,98033.00
2019-03-31T22:26:35.525Z,98029.16
2019-03-31T22:29:04.578Z,98021.13
2019-03-31T22:31:33.648Z,98030.84
2019-03-31T22:34:02.515Z,98033.30
2019-03-31T22:36:31.250Z,98025.23
2019-03-31T22:38:59.997Z,98019.83
2019-03-31T22:41:29.147Z,98013.66
2019-03-31T22:43:57.960Z,98020.76
2019-03-31T22:46:26.763Z,98017.41
2019-03-31T22:48:55.575Z,98020.12
2019-03-31T22:51:24.492Z,98021.13
2019-03-31T22:53:53.342Z,98021.34
2019-03-31T22:56:22.269Z,98014.23
2019-03-31T22:58:51.162Z,98019.27
2019-03-31T23:01:20.105Z,98014.78
2019-03-31T23:03:48.923Z,98017.02
2019-03-31T23:06:20.779Z,98013.38
2019-03-31T23:08:49.546Z,98012.24
2019-03-31T23:11:18.433Z,98009.83
2019-03-31T23:13:47.255Z,98019.65
2019-03-31T23:16:16.207Z,98012.44
2019-03-31T23:18:45.122Z,98007.19
2019-03-31T23:21:13.953Z,98003.37
2019-03-31T23:23:45.635Z,98009.91
2019-03-31T23:26:14.744Z,98004.08
2019-03-31T23:28:49.325Z,97999.97
2019-03-31T23:31:18.239Z,98006.84
2019-03-31T23:33:47.055Z,98000.74
2019-03-31T23:36:15.885Z,98005.14
2019-03-31T23:38:44.733Z,98002.52
2019-03-31T23:41:13.604Z,98000.37
2019-03-31T23:43:42.502Z,97998.46
2019-03-31T23:46:11.461Z,97997.34
2019-03-31T23:48:40.247Z,97992.42
2019-03-31T23:51:08.991Z,97992.77
2019-03-31T23:53:39.516Z,97992.20
2019-03-31T23:56:08.434Z,97996.70
2019-03-31T23:58:37.213Z,97994.16
